createdAt,value
2022-11-17T00:00:12.484Z,99250.03
2022-11-17T00:00:52.240Z,99244.22
2022-11-17T00:01:28.321Z,99248.13
2022-11-17T00:02:01.980Z,99248.84
2022-11-17T00:02:43.299Z,99232.19
2022-11-17T00:03:21.410Z,99239.81
2022-11-17T00:03:55.963Z,99245.06
2022-11-17T00:04:36.269Z,99244.22
2022-11-17T00:05:10.330Z,99240.44
2022-11-17T00:05:44.765Z,99244.97
2022-11-17T00:06:28.269Z,99246.78
2022-11-17T00:07:05.316Z,99244.19
2022-11-17T00:07:39.016Z,99244.69
2022-11-17T00:08:19.222Z,99239.72
2022-11-17T00:08:54.296Z,99233.03
2022-11-17T00:09:27.999Z,99237.16
2022-11-17T00:10:08.266Z,99242.88
2022-11-17T00:10:42.269Z,99233.75
2022-11-17T00:11:16.210Z,99238.50
2022-11-17T00:12:20.524Z,99230.38
2022-11-17T00:13:14.993Z,99238.00
2022-11-17T00:14:07.683Z,99229.97
2022-11-17T00:14:48.237Z,99235.44
2022-11-17T00:15:29.260Z,99236.66
2022-11-17T00:16:03.028Z,99231.56
2022-11-17T00:16:50.260Z,99231.22
2022-11-17T00:17:24.368Z,99234.97
2022-11-17T00:18:29.322Z,99231.94
2022-11-17T00:19:22.839Z,99230.81
2022-11-17T00:20:28.203Z,99240.09
2022-11-17T00:21:26.269Z,99234.97
2022-11-17T00:22:06.294Z,99235.22
2022-11-17T00:22:46.192Z,99236.56
2022-11-17T00:23:26.338Z,99243.75
2022-11-17T00:24:07.359Z,99233.75
2022-11-17T00:24:47.266Z,99241.53
2022-11-17T00:25:27.211Z,99230.22
2022-11-17T00:26:07.232Z,99224.03
2022-11-17T00:27:01.636Z,99227.28
2022-11-17T00:27:36.138Z,99229.38
2022-11-17T00:28:17.200Z,99240.31
2022-11-17T00:28:51.299Z,99233.88
2022-11-17T00:29:24.939Z,99236.31
2022-11-17T00:30:05.245Z,99235.22
2022-11-17T00:31:04.249Z,99227.41
2022-11-17T00:32:13.466Z,99223.66
2022-11-17T00:33:19.264Z,99230.59
2022-11-17T00:34:04.830Z,99221.47
2022-11-17T00:34:53.193Z,99224.03
2022-11-17T00:35:26.941Z,99231.56
2022-11-17T00:36:14.240Z,99229.59
2022-11-17T00:36:50.908Z,99238.63
2022-11-17T00:37:40.221Z,99232.91
2022-11-17T00:38:16.841Z,99239.81
2022-11-17T00:39:04.221Z,99236.44
2022-11-17T00:39:37.951Z,99239.59
2022-11-17T00:40:26.219Z,99234.47
2022-11-17T00:40:59.977Z,99241.78
2022-11-17T00:41:40.209Z,99247.34
2022-11-17T00:42:14.244Z,99231.06
2022-11-17T00:42:47.904Z,99237.91
2022-11-17T00:43:28.243Z,99238.38
2022-11-17T00:44:02.261Z,99243.59
2022-11-17T00:44:35.922Z,99240.09
2022-11-17T00:45:17.220Z,99241.78
2022-11-17T00:45:51.281Z,99244.09
2022-11-17T00:46:24.942Z,99243.97
2022-11-17T00:47:06.201Z,99238.75
2022-11-17T00:47:43.263Z,99247.34
2022-11-17T00:48:16.911Z,99230.34
2022-11-17T00:48:57.199Z,99244.94
2022-11-17T00:49:31.361Z,99239.34
2022-11-17T00:50:05.602Z,99231.31
2022-11-17T00:50:45.198Z,99239.47
2022-11-17T00:51:19.322Z,99233.25
2022-11-17T00:51:55.016Z,99225.84
2022-11-17T00:52:35.212Z,99225.00
2022-11-17T00:53:09.284Z,99230.72
2022-11-17T00:53:42.973Z,99238.63
2022-11-17T00:54:23.202Z,99231.56
2022-11-17T00:54:57.294Z,99238.88
2022-11-17T00:55:30.957Z,99240.94
2022-11-17T00:56:12.188Z,99236.44
2022-11-17T00:56:47.573Z,99237.06
2022-11-17T00:57:21.890Z,99240.22
2022-11-17T00:58:02.230Z,99235.44
2022-11-17T00:58:36.531Z,99243.13
2022-11-17T00:59:10.055Z,99243.13
2022-11-17T00:59:50.179Z,99247.63
2022-11-17T01:00:24.252Z,99241.06
2022-11-17T01:00:57.879Z,99228.88
2022-11-17T01:01:39.222Z,99225.00
2022-11-17T01:02:38.619Z,99237.13
2022-11-17T01:03:26.288Z,99235.06
2022-11-17T01:04:20.212Z,99238.72
2022-11-17T01:05:14.201Z,99241.06
2022-11-17T01:06:08.204Z,99228.88
2022-11-17T01:07:03.274Z,99234.34
2022-11-17T01:07:57.181Z,99234.00
2022-11-17T01:08:45.228Z,99228.03
2022-11-17T01:09:26.435Z,99236.91
2022-11-17T01:10:14.171Z,99244.44
2022-11-17T01:10:48.241Z,99225.47
2022-11-17T01:11:36.187Z,99233.75
2022-11-17T01:12:10.230Z,99238.63
2022-11-17T01:12:57.154Z,99238.63
2022-11-17T01:13:31.388Z,99242.25
2022-11-17T01:14:11.188Z,99238.25
2022-11-17T01:14:51.201Z,99233.53
2022-11-17T01:15:31.177Z,99240.81
2022-11-17T01:16:23.311Z,99240.44
2022-11-17T01:17:03.160Z,99235.22
2022-11-17T01:17:43.228Z,99229.72
2022-11-17T01:18:23.179Z,99229.38
2022-11-17T01:19:09.204Z,99239.47
2022-11-17T01:19:49.200Z,99243.75
2022-11-17T01:20:43.183Z,99233.97
2022-11-17T01:21:40.155Z,99234.72
2022-11-17T01:22:34.211Z,99239.34
2022-11-17T01:23:28.168Z,99224.88
2022-11-17T01:24:24.205Z,99212.69
2022-11-17T01:25:12.411Z,99246.63
2022-11-17T01:25:46.312Z,99221.47
2022-11-17T01:26:40.155Z,99215.97
2022-11-17T01:27:14.229Z,99238.94
2022-11-17T01:28:01.176Z,99235.44
2022-11-17T01:28:35.276Z,99236.78
2022-11-17T01:29:25.144Z,99233.75
2022-11-17T01:29:59.194Z,99237.13
2022-11-17T01:30:39.348Z,99249.56
2022-11-17T01:31:29.155Z,99240.56
2022-11-17T01:32:09.142Z,99226.69
2022-11-17T01:32:49.216Z,99242.75
2022-11-17T01:33:29.141Z,99236.41
2022-11-17T01:34:09.211Z,99240.31
2022-11-17T01:34:50.164Z,99240.94
2022-11-17T01:35:30.213Z,99230.72
2022-11-17T01:36:23.159Z,99238.88
2022-11-17T01:37:21.415Z,99249.81
2022-11-17T01:38:01.183Z,99238.00
2022-11-17T01:38:41.161Z,99230.56
2022-11-17T01:39:21.120Z,99239.94
2022-11-17T01:40:01.225Z,99233.03
2022-11-17T01:40:41.112Z,99230.22
2022-11-17T01:41:31.179Z,99234.84
2022-11-17T01:42:40.159Z,99234.00
2022-11-17T01:43:57.160Z,99239.34
2022-11-17T01:45:11.152Z,99232.41
2022-11-17T01:46:05.144Z,99210.13
2022-11-17T01:46:54.628Z,99199.66
2022-11-17T01:47:44.379Z,99226.06
2022-11-17T01:48:31.160Z,99238.88
2022-11-17T01:49:28.187Z,99233.53
2022-11-17T01:50:44.119Z,99226.69
2022-11-17T01:51:20.186Z,99220.38
2022-11-17T01:52:12.155Z,99238.38
2022-11-17T01:52:46.181Z,99210.16
2022-11-17T01:53:35.365Z,99235.94
2022-11-17T01:54:09.167Z,99237.78
2022-11-17T01:54:57.129Z,99233.03
2022-11-17T01:55:44.254Z,99230.59
2022-11-17T01:56:36.117Z,99221.94
2022-11-17T01:57:21.139Z,99240.31
2022-11-17T01:58:37.137Z,99229.13
2022-11-17T01:59:43.115Z,99235.72
2022-11-17T02:00:38.144Z,99220.16
2022-11-17T02:01:32.177Z,99233.53
2022-11-17T02:02:27.176Z,99236.66
2022-11-17T02:03:21.126Z,99230.59
2022-11-17T02:04:15.128Z,99228.28
2022-11-17T02:05:35.134Z,99238.63
2022-11-17T02:06:45.094Z,99236.06
2022-11-17T02:07:43.155Z,99240.56
2022-11-17T02:08:41.116Z,99210.78
2022-11-17T02:09:36.176Z,99234.47
2022-11-17T02:10:30.121Z,99232.03
2022-11-17T02:11:28.122Z,99234.59
2022-11-17T02:12:24.119Z,99232.53
2022-11-17T02:13:06.120Z,99237.53
2022-11-17T02:13:47.247Z,99230.09
2022-11-17T02:14:27.126Z,99232.28
2022-11-17T02:15:08.212Z,99237.78
2022-11-17T02:15:49.105Z,99230.94
2022-11-17T02:16:29.124Z,99235.72
2022-11-17T02:17:13.951Z,99226.44
2022-11-17T02:17:56.827Z,99217.94
2022-11-17T02:18:37.117Z,99229.63
2022-11-17T02:19:19.130Z,99219.88
2022-11-17T02:20:18.099Z,99231.69
2022-11-17T02:21:36.176Z,99232.06
2022-11-17T02:22:37.098Z,99233.75
2022-11-17T02:24:15.098Z,99224.63
2022-11-17T02:25:45.072Z,99194.09
2022-11-17T02:26:48.124Z,99220.09
2022-11-17T02:28:17.120Z,99226.69
2022-11-17T02:29:28.082Z,99222.56
2022-11-17T02:30:28.089Z,99229.13
2022-11-17T02:31:40.124Z,99194.59
2022-11-17T02:33:00.110Z,99229.38
2022-11-17T02:34:25.124Z,99232.06
2022-11-17T02:35:32.112Z,99208.19
2022-11-17T02:37:02.173Z,99205.78
2022-11-17T02:38:28.087Z,99209.41
2022-11-17T02:39:21.200Z,99212.56
2022-11-17T02:40:31.156Z,99218.41
2022-11-17T02:41:20.076Z,99200.66
2022-11-17T02:42:17.163Z,99201.28
2022-11-17T02:43:29.084Z,99217.81
2022-11-17T02:44:21.155Z,99214.53
2022-11-17T02:45:11.066Z,99194.59
2022-11-17T02:45:59.083Z,99213.06
2022-11-17T02:46:59.100Z,99215.88
2022-11-17T02:47:56.087Z,99218.31
2022-11-17T02:48:55.080Z,99221.09
2022-11-17T02:49:54.095Z,99222.34
2022-11-17T02:50:49.116Z,99210.75
2022-11-17T02:51:31.071Z,99214.53
2022-11-17T02:52:12.099Z,99198.25
2022-11-17T02:52:53.100Z,99214.03
2022-11-17T02:53:34.600Z,99216.97
2022-11-17T02:54:16.086Z,99222.56
2022-11-17T02:54:56.127Z,99204.81
2022-11-17T02:55:40.047Z,99212.34
2022-11-17T02:56:20.082Z,99212.84
2022-11-17T02:57:00.039Z,99209.91
2022-11-17T02:57:46.096Z,99205.88
2022-11-17T02:58:27.061Z,99214.75
2022-11-17T02:59:09.109Z,99213.56
2022-11-17T02:59:53.096Z,99215.00
2022-11-17T03:00:34.105Z,99225.59
2022-11-17T03:01:48.162Z,99220.09
2022-11-17T03:03:10.109Z,99198.59
2022-11-17T03:04:32.295Z,99216.47
2022-11-17T03:06:06.081Z,99210.50
2022-11-17T03:07:37.135Z,99221.44
2022-11-17T03:08:49.071Z,99214.53
2022-11-17T03:09:43.148Z,99216.72
2022-11-17T03:10:28.059Z,99206.84
2022-11-17T03:11:14.086Z,99207.94
2022-11-17T03:12:25.100Z,99217.41
2022-11-17T03:13:40.339Z,99203.94
2022-11-17T03:15:05.082Z,99203.56
2022-11-17T03:16:15.148Z,99208.94
2022-11-17T03:17:14.019Z,99187.97
2022-11-17T03:18:01.127Z,99199.16
2022-11-17T03:19:25.067Z,99203.09
2022-11-17T03:20:22.103Z,99197.59
2022-11-17T03:21:16.372Z,99209.78
2022-11-17T03:22:30.069Z,99199.16
2022-11-17T03:23:19.639Z,99195.50
2022-11-17T03:24:50.090Z,99205.97
2022-11-17T03:25:31.097Z,99202.69
2022-11-17T03:26:16.094Z,99190.41
2022-11-17T03:27:22.066Z,99167.06
2022-11-17T03:28:06.104Z,99192.38
2022-11-17T03:28:46.017Z,99201.22
2022-11-17T03:29:29.084Z,99198.66
2022-11-17T03:30:14.049Z,99192.59
2022-11-17T03:30:55.068Z,99183.09
2022-11-17T03:31:30.038Z,99180.09
2022-11-17T03:32:05.531Z,99186.78
2022-11-17T03:32:49.033Z,99199.66
2022-11-17T03:33:27.091Z,99200.41
2022-11-17T03:34:02.951Z,99194.81
2022-11-17T03:34:53.046Z,99192.00
2022-11-17T03:35:34.103Z,99198.81
2022-11-17T03:36:19.054Z,99187.75
2022-11-17T03:37:07.176Z,99201.00
2022-11-17T03:37:56.012Z,99203.69
2022-11-17T03:38:41.043Z,99201.75
2022-11-17T03:39:38.016Z,99199.91
2022-11-17T03:40:21.177Z,99184.44
2022-11-17T03:41:03.010Z,99183.59
2022-11-17T03:41:49.038Z,99197.75
2022-11-17T03:42:35.079Z,99189.22
2022-11-17T03:43:09.813Z,99186.28
2022-11-17T03:43:51.007Z,99199.56
2022-11-17T03:44:26.038Z,99197.97
2022-11-17T03:45:10.086Z,99199.44
2022-11-17T03:45:58.028Z,99166.22
2022-11-17T03:46:33.107Z,99197.13
2022-11-17T03:47:14.065Z,99203.81
2022-11-17T03:47:58.107Z,99199.31
2022-11-17T03:49:06.031Z,99201.75
2022-11-17T03:50:19.054Z,99208.88
2022-11-17T03:51:23.043Z,99182.16
2022-11-17T03:52:04.146Z,99204.50
2022-11-17T03:52:45.042Z,99205.00
2022-11-17T03:53:25.024Z,99201.13
2022-11-17T03:54:04.988Z,99193.44
2022-11-17T03:54:46.026Z,99175.09
2022-11-17T03:55:25.992Z,99194.06
2022-11-17T03:56:42.318Z,99199.50
2022-11-17T03:57:27.978Z,99203.31
2022-11-17T03:58:16.062Z,99205.28
2022-11-17T03:59:01.048Z,99199.16
2022-11-17T03:59:54.745Z,99207.69
2022-11-17T04:00:34.996Z,99207.81
2022-11-17T04:01:15.183Z,99193.09
2022-11-17T04:01:55.050Z,99197.56
2022-11-17T04:02:36.007Z,99209.97
2022-11-17T04:03:16.027Z,99181.41
2022-11-17T04:03:56.090Z,99204.41
2022-11-17T04:04:55.997Z,99200.13
2022-11-17T04:05:36.029Z,99216.56
2022-11-17T04:06:16.001Z,99203.09
2022-11-17T04:07:00.106Z,99201.47
2022-11-17T04:07:51.998Z,99202.31
2022-11-17T04:08:40.039Z,99206.47
2022-11-17T04:09:13.670Z,99191.13
2022-11-17T04:10:00.985Z,99205.34
2022-11-17T04:10:54.611Z,99199.88
2022-11-17T04:11:59.979Z,99203.78
2022-11-17T04:12:52.444Z,99201.59
2022-11-17T04:13:57.130Z,99211.44
2022-11-17T04:14:49.514Z,99203.28
2022-11-17T04:15:54.988Z,99199.41
2022-11-17T04:16:28.639Z,99196.13
2022-11-17T04:17:17.009Z,99198.41
2022-11-17T04:17:50.727Z,99215.47
2022-11-17T04:18:37.978Z,99216.47
2022-11-17T04:19:18.054Z,99207.69
2022-11-17T04:19:58.053Z,99195.25
2022-11-17T04:20:41.963Z,99206.81
2022-11-17T04:21:22.022Z,99213.28
2022-11-17T04:22:01.972Z,99197.72
2022-11-17T04:22:42.060Z,99202.31
2022-11-17T04:23:22.979Z,99208.66
2022-11-17T04:24:03.036Z,99202.56
2022-11-17T04:24:42.998Z,99201.47
2022-11-17T04:25:43.020Z,99200.38
2022-11-17T04:26:41.974Z,99203.50
2022-11-17T04:27:41.543Z,99202.59
2022-11-17T04:28:41.060Z,99208.53
2022-11-17T04:29:21.052Z,99207.69
2022-11-17T04:30:00.977Z,99207.31
2022-11-17T04:30:41.014Z,99203.16
2022-11-17T04:31:34.027Z,99205.69
2022-11-17T04:32:15.043Z,99201.22
2022-11-17T04:32:54.997Z,99206.66
2022-11-17T04:33:35.217Z,99204.00
2022-11-17T04:34:15.958Z,99200.59
2022-11-17T04:34:55.975Z,99207.41
2022-11-17T04:35:37.016Z,99208.25
2022-11-17T04:36:20.048Z,99204.97
2022-11-17T04:37:06.985Z,99207.16
2022-11-17T04:37:48.023Z,99204.75
2022-11-17T04:38:27.948Z,99198.66
2022-11-17T04:39:09.078Z,99200.63
2022-11-17T04:39:49.944Z,99203.44
2022-11-17T04:40:30.026Z,99202.81
2022-11-17T04:41:31.977Z,99196.97
2022-11-17T04:42:13.035Z,99199.78
2022-11-17T04:42:52.937Z,99204.28
2022-11-17T04:43:33.345Z,99205.97
2022-11-17T04:44:15.974Z,99205.75
2022-11-17T04:44:56.002Z,99205.47
2022-11-17T04:45:35.972Z,99202.78
2022-11-17T04:46:16.148Z,99204.28
2022-11-17T04:46:56.959Z,99204.50
2022-11-17T04:47:38.030Z,99204.50
2022-11-17T04:48:17.947Z,99208.28
2022-11-17T04:49:00.033Z,99201.84
2022-11-17T04:49:39.932Z,99203.06
2022-11-17T04:50:19.989Z,99213.03
2022-11-17T04:51:04.024Z,99205.25
2022-11-17T04:51:45.016Z,99209.16
2022-11-17T04:52:29.564Z,99208.16
2022-11-17T04:53:09.980Z,99213.78
2022-11-17T04:53:50.956Z,99208.28
2022-11-17T04:54:32.042Z,99206.09
2022-11-17T04:55:12.955Z,99214.97
2022-11-17T04:55:53.037Z,99211.44
2022-11-17T04:56:33.929Z,99196.97
2022-11-17T04:57:14.981Z,99203.28
2022-11-17T04:57:54.958Z,99212.19
2022-11-17T04:58:35.069Z,99218.88
2022-11-17T04:59:15.105Z,99210.59
2022-11-17T04:59:55.006Z,99208.66
2022-11-17T05:00:34.939Z,99213.41
2022-11-17T05:01:17.488Z,99216.69
2022-11-17T05:02:02.620Z,99217.53
2022-11-17T05:02:46.023Z,99210.47
2022-11-17T05:03:26.022Z,99213.28
2022-11-17T05:04:08.010Z,99212.44
2022-11-17T05:05:02.936Z,99222.53
2022-11-17T05:05:42.939Z,99226.91
2022-11-17T05:06:26.914Z,99202.19
2022-11-17T05:07:08.158Z,99207.47
2022-11-17T05:07:47.925Z,99214.16
2022-11-17T05:08:34.935Z,99218.38
2022-11-17T05:09:15.265Z,99213.53
2022-11-17T05:10:01.938Z,99217.53
2022-11-17T05:10:54.246Z,99207.47
2022-11-17T05:12:01.923Z,99213.78
2022-11-17T05:12:53.859Z,99215.00
2022-11-17T05:13:40.910Z,99209.84
2022-11-17T05:14:17.623Z,99211.69
2022-11-17T05:15:05.103Z,99212.06
2022-11-17T05:15:57.411Z,99209.13
2022-11-17T05:17:08.450Z,99220.09
2022-11-17T05:17:43.586Z,99218.16
2022-11-17T05:18:30.923Z,99208.78
2022-11-17T05:19:13.947Z,99212.16
2022-11-17T05:19:55.139Z,99213.66
2022-11-17T05:20:34.896Z,99210.34
2022-11-17T05:21:16.972Z,99211.56
2022-11-17T05:21:57.902Z,99218.03
2022-11-17T05:22:56.431Z,99211.09
2022-11-17T05:23:55.965Z,99208.63
2022-11-17T05:24:36.923Z,99219.72
2022-11-17T05:25:12.028Z,99212.78
2022-11-17T05:25:45.648Z,99219.59
2022-11-17T05:26:29.912Z,99204.28
2022-11-17T05:27:03.932Z,99204.00
2022-11-17T05:27:38.277Z,99217.03
2022-11-17T05:28:18.884Z,99222.28
2022-11-17T05:28:52.981Z,99222.66
2022-11-17T05:29:26.655Z,99210.69
2022-11-17T05:30:08.928Z,99218.88
2022-11-17T05:30:42.927Z,99218.16
2022-11-17T05:31:17.288Z,99215.34
2022-11-17T05:31:56.894Z,99207.91
2022-11-17T05:32:31.019Z,99213.88
2022-11-17T05:33:05.566Z,99211.44
2022-11-17T05:33:45.886Z,99212.03
2022-11-17T05:34:21.935Z,99219.97
2022-11-17T05:34:55.661Z,99202.94
2022-11-17T05:35:35.922Z,99196.63
2022-11-17T05:36:09.948Z,99214.00
2022-11-17T05:36:56.922Z,99205.47
2022-11-17T05:37:30.947Z,99203.28
2022-11-17T05:38:17.901Z,99212.03
2022-11-17T05:38:53.149Z,99210.84
2022-11-17T05:39:39.900Z,99212.53
2022-11-17T05:40:14.949Z,99218.16
2022-11-17T05:40:54.905Z,99209.13
2022-11-17T05:41:34.945Z,99210.59
2022-11-17T05:42:14.898Z,99208.63
2022-11-17T05:42:57.222Z,99214.00
2022-11-17T05:43:37.157Z,99214.22
2022-11-17T05:44:17.930Z,99219.84
2022-11-17T05:44:57.926Z,99219.34
2022-11-17T05:45:37.916Z,99214.97
2022-11-17T05:46:18.935Z,99212.53
2022-11-17T05:46:59.115Z,99207.16
2022-11-17T05:47:39.878Z,99215.56
2022-11-17T05:48:19.929Z,99218.38
2022-11-17T05:49:00.921Z,99216.47
2022-11-17T05:49:40.975Z,99213.03
2022-11-17T05:50:20.900Z,99188.94
2022-11-17T05:51:02.950Z,99211.09
2022-11-17T05:51:48.564Z,99215.34
2022-11-17T05:52:31.968Z,99211.47
2022-11-17T05:53:11.918Z,99216.06
2022-11-17T05:53:51.960Z,99216.81
2022-11-17T05:54:33.907Z,99220.00
2022-11-17T05:55:14.044Z,99220.84
2022-11-17T05:55:54.903Z,99217.91
2022-11-17T05:57:14.907Z,99221.81
2022-11-17T05:58:10.871Z,99211.34
2022-11-17T05:59:08.925Z,99226.78
2022-11-17T06:00:10.886Z,99220.50
2022-11-17T06:01:05.864Z,99220.34
2022-11-17T06:02:13.912Z,99220.94
2022-11-17T06:03:00.868Z,99197.97
2022-11-17T06:03:50.992Z,99225.09
2022-11-17T06:04:31.960Z,99236.28
2022-11-17T06:05:18.750Z,99234.38
2022-11-17T06:06:00.872Z,99232.91
2022-11-17T06:06:42.948Z,99229.25
2022-11-17T06:07:24.964Z,99229.47
2022-11-17T06:08:04.938Z,99241.53
2022-11-17T06:08:44.874Z,99236.78
2022-11-17T06:09:24.917Z,99225.34
2022-11-17T06:10:04.955Z,99229.09
2022-11-17T06:10:44.910Z,99234.22
2022-11-17T06:11:25.917Z,99229.84
2022-11-17T06:12:19.883Z,99228.97
2022-11-17T06:12:59.916Z,99232.63
2022-11-17T06:13:39.928Z,99237.16
2022-11-17T06:14:20.848Z,99232.53
2022-11-17T06:15:00.909Z,99239.81
2022-11-17T06:15:41.856Z,99227.53
2022-11-17T06:16:24.968Z,99234.59
2022-11-17T06:17:09.859Z,99232.28
2022-11-17T06:18:17.908Z,99242.00
2022-11-17T06:19:21.876Z,99224.25
2022-11-17T06:20:39.826Z,99239.47
2022-11-17T06:22:04.356Z,99233.28
2022-11-17T06:22:48.898Z,99239.72
2022-11-17T06:23:38.902Z,99242.28
2022-11-17T06:24:13.885Z,99241.16
2022-11-17T06:25:01.868Z,99239.34
2022-11-17T06:25:35.863Z,99243.34
2022-11-17T06:26:22.872Z,99238.84
2022-11-17T06:26:56.891Z,99247.38
2022-11-17T06:27:44.871Z,99247.63
2022-11-17T06:28:21.967Z,99254.44
2022-11-17T06:29:02.860Z,99244.81
2022-11-17T06:29:44.896Z,99242.50
2022-11-17T06:30:25.847Z,99254.69
2022-11-17T06:31:07.477Z,99249.34
2022-11-17T06:31:49.827Z,99239.47
2022-11-17T06:32:29.942Z,99251.63
2022-11-17T06:33:10.857Z,99231.31
2022-11-17T06:33:50.884Z,99244.69
2022-11-17T06:34:34.907Z,99237.63
2022-11-17T06:35:16.636Z,99227.91
2022-11-17T06:35:56.836Z,99238.00
2022-11-17T06:36:36.914Z,99249.47
2022-11-17T06:37:17.831Z,99244.47
2022-11-17T06:37:57.880Z,99234.72
2022-11-17T06:38:39.857Z,99244.09
2022-11-17T06:39:20.103Z,99238.13
2022-11-17T06:40:00.867Z,99254.06
2022-11-17T06:40:40.984Z,99254.44
2022-11-17T06:41:20.831Z,99247.63
2022-11-17T06:42:00.881Z,99244.94
2022-11-17T06:43:00.864Z,99253.97
2022-11-17T06:43:40.907Z,99257.63
2022-11-17T06:44:20.898Z,99256.28
2022-11-17T06:45:07.860Z,99257.22
2022-11-17T06:46:01.828Z,99257.59
2022-11-17T06:46:55.848Z,99249.19
2022-11-17T06:47:36.531Z,99248.34
2022-11-17T06:48:34.222Z,99260.25
2022-11-17T06:49:08.621Z,99254.81
2022-11-17T06:49:55.829Z,99240.44
2022-11-17T06:50:35.848Z,99250.31
2022-11-17T06:51:16.875Z,99258.06
2022-11-17T06:51:56.833Z,99258.06
2022-11-17T06:52:36.834Z,99255.31
2022-11-17T06:53:18.996Z,99257.63
2022-11-17T06:53:58.938Z,99264.66
2022-11-17T06:54:38.917Z,99262.00
2022-11-17T06:55:18.942Z,99259.19
2022-11-17T06:56:11.931Z,99258.19
2022-11-17T06:56:52.539Z,99260.38
2022-11-17T06:57:32.886Z,99260.28
2022-11-17T06:58:15.914Z,99258.44
2022-11-17T06:58:55.851Z,99261.34
2022-11-17T06:59:37.614Z,99253.09
2022-11-17T07:00:18.951Z,99271.34
2022-11-17T07:00:59.957Z,99266.09
2022-11-17T07:01:39.859Z,99269.03
2022-11-17T07:02:19.966Z,99265.38
2022-11-17T07:02:59.881Z,99265.16
2022-11-17T07:03:45.030Z,99261.72
2022-11-17T07:04:24.845Z,99277.28
2022-11-17T07:05:04.981Z,99257.84
2022-11-17T07:05:45.902Z,99260.88
2022-11-17T07:06:25.885Z,99267.69
2022-11-17T07:07:05.953Z,99253.09
2022-11-17T07:07:45.957Z,99250.63
2022-11-17T07:08:28.921Z,99258.31
2022-11-17T07:09:08.975Z,99261.50
2022-11-17T07:09:48.842Z,99262.47
2022-11-17T07:10:30.033Z,99250.53
2022-11-17T07:11:15.869Z,99271.69
2022-11-17T07:11:55.914Z,99265.75
2022-11-17T07:12:35.950Z,99259.66
2022-11-17T07:13:15.939Z,99269.53
2022-11-17T07:13:55.854Z,99253.44
2022-11-17T07:14:35.926Z,99246.16
2022-11-17T07:15:16.850Z,99261.00
2022-11-17T07:15:57.927Z,99266.00
2022-11-17T07:16:38.857Z,99256.47
2022-11-17T07:17:18.905Z,99260.66
2022-11-17T07:17:58.966Z,99263.69
2022-11-17T07:18:41.725Z,99263.06
2022-11-17T07:19:21.850Z,99258.53
2022-11-17T07:20:04.156Z,99255.16
2022-11-17T07:20:43.895Z,99247.97
2022-11-17T07:21:23.915Z,99261.50
2022-11-17T07:22:03.889Z,99262.97
2022-11-17T07:22:44.972Z,99249.09
2022-11-17T07:23:24.885Z,99267.84
2022-11-17T07:24:05.054Z,99264.06
2022-11-17T07:24:45.855Z,99259.06
2022-11-17T07:25:25.922Z,99275.47
2022-11-17T07:26:06.843Z,99259.06
2022-11-17T07:26:46.962Z,99263.91
2022-11-17T07:27:26.862Z,99260.38
2022-11-17T07:28:07.874Z,99260.50
2022-11-17T07:28:47.846Z,99257.97
2022-11-17T07:29:30.542Z,99253.22
2022-11-17T07:30:12.841Z,99263.69
2022-11-17T07:30:52.975Z,99267.81
2022-11-17T07:31:32.878Z,99261.00
2022-11-17T07:32:13.889Z,99265.63
2022-11-17T07:32:54.920Z,99260.03
2022-11-17T07:33:34.914Z,99240.28
2022-11-17T07:34:15.874Z,99258.09
2022-11-17T07:34:55.880Z,99259.03
2022-11-17T07:35:35.818Z,99266.34
2022-11-17T07:36:18.863Z,99259.75
2022-11-17T07:36:58.841Z,99266.34
2022-11-17T07:37:38.907Z,99258.06
2022-11-17T07:38:18.849Z,99259.84
2022-11-17T07:38:59.892Z,99251.47
2022-11-17T07:39:39.849Z,99266.56
2022-11-17T07:40:19.879Z,99264.16
2022-11-17T07:40:59.872Z,99259.41
2022-11-17T07:41:39.881Z,99267.56
2022-11-17T07:42:19.830Z,99256.00
2022-11-17T07:43:00.344Z,99249.31
2022-11-17T07:43:41.798Z,99262.19
2022-11-17T07:44:21.879Z,99264.16
2022-11-17T07:45:01.897Z,99259.31
2022-11-17T07:45:42.882Z,99256.72
2022-11-17T07:46:22.900Z,99254.94
2022-11-17T07:47:02.868Z,99268.53
2022-11-17T07:47:42.814Z,99257.84
2022-11-17T07:48:23.919Z,99261.00
2022-11-17T07:49:03.848Z,99257.22
2022-11-17T07:49:43.930Z,99260.16
2022-11-17T07:50:23.782Z,99253.69
2022-11-17T07:51:07.843Z,99257.34
2022-11-17T07:51:47.785Z,99251.38
2022-11-17T07:52:28.061Z,99225.22
2022-11-17T07:53:08.887Z,99254.19
2022-11-17T07:53:48.841Z,99244.94
2022-11-17T07:54:28.781Z,99257.63
2022-11-17T07:55:08.851Z,99258.47
2022-11-17T07:55:48.868Z,99249.59
2022-11-17T07:56:28.871Z,99256.50
2022-11-17T07:57:08.916Z,99259.53
2022-11-17T07:57:49.848Z,99261.00
2022-11-17T07:58:31.792Z,99257.47
2022-11-17T07:59:14.963Z,99269.66
2022-11-17T07:59:58.815Z,99262.56
2022-11-17T08:00:38.934Z,99254.94
2022-11-17T08:01:22.011Z,99262.81
2022-11-17T08:02:07.874Z,99264.75
2022-11-17T08:02:48.778Z,99260.28
2022-11-17T08:03:28.928Z,99253.69
2022-11-17T08:04:08.887Z,99265.50
2022-11-17T08:04:48.874Z,99264.66
2022-11-17T08:05:28.906Z,99260.50
2022-11-17T08:06:13.894Z,99257.84
2022-11-17T08:06:54.062Z,99253.97
2022-11-17T08:07:34.970Z,99255.53
2022-11-17T08:08:15.790Z,99263.31
2022-11-17T08:08:56.106Z,99261.00
2022-11-17T08:09:36.784Z,99262.22
2022-11-17T08:10:16.898Z,99273.66
2022-11-17T08:10:56.795Z,99264.88
2022-11-17T08:11:36.871Z,99265.16
2022-11-17T08:12:17.833Z,99261.63
2022-11-17T08:12:59.509Z,99266.09
2022-11-17T08:13:41.074Z,99265.03
2022-11-17T08:14:21.282Z,99266.38
2022-11-17T08:15:01.795Z,99260.75
2022-11-17T08:15:41.816Z,99250.31
2022-11-17T08:16:21.806Z,99264.69
2022-11-17T08:17:02.834Z,99261.03
2022-11-17T08:17:43.870Z,99266.09
2022-11-17T08:18:24.012Z,99263.22
2022-11-17T08:19:04.807Z,99258.81
2022-11-17T08:19:44.913Z,99265.16
2022-11-17T08:20:24.881Z,99261.50
2022-11-17T08:21:17.015Z,99267.84
2022-11-17T08:21:57.827Z,99263.81
2022-11-17T08:22:37.810Z,99269.19
2022-11-17T08:23:17.855Z,99253.97
2022-11-17T08:24:00.219Z,99256.28
2022-11-17T08:24:40.799Z,99264.91
2022-11-17T08:25:20.862Z,99263.81
2022-11-17T08:26:00.824Z,99253.56
2022-11-17T08:26:41.847Z,99263.22
2022-11-17T08:27:21.790Z,99259.56
2022-11-17T08:28:03.853Z,99266.50
2022-11-17T08:28:43.826Z,99264.41
2022-11-17T08:29:24.793Z,99263.69
2022-11-17T08:30:04.795Z,99271.22
2022-11-17T08:30:44.787Z,99264.19
2022-11-17T08:31:25.800Z,99267.56
2022-11-17T08:32:05.836Z,99269.25
2022-11-17T08:32:45.878Z,99268.78
2022-11-17T08:33:25.838Z,99249.94
2022-11-17T08:34:05.858Z,99265.63
2022-11-17T08:34:45.869Z,99268.78
2022-11-17T08:35:34.279Z,99269.75
2022-11-17T08:36:17.915Z,99256.97
2022-11-17T08:36:57.776Z,99265.63
2022-11-17T08:37:38.832Z,99260.38
2022-11-17T08:38:21.766Z,99264.53
2022-11-17T08:39:01.855Z,99263.81
2022-11-17T08:39:41.773Z,99261.72
2022-11-17T08:40:22.948Z,99261.50
2022-11-17T08:41:11.790Z,99265.38
2022-11-17T08:41:51.891Z,99267.84
2022-11-17T08:42:31.946Z,99264.41
2022-11-17T08:43:11.813Z,99265.88
2022-11-17T08:43:51.844Z,99268.78
2022-11-17T08:44:31.992Z,99263.41
2022-11-17T08:45:13.928Z,99262.69
2022-11-17T08:45:54.872Z,99263.44
2022-11-17T08:46:34.818Z,99260.63
2022-11-17T08:47:14.810Z,99254.66
2022-11-17T08:47:54.795Z,99257.22
2022-11-17T08:48:36.330Z,99233.53
2022-11-17T08:49:16.806Z,99249.56
2022-11-17T08:49:56.806Z,99263.41